Time;durP1;ratioP1;P1;durP2;ratioP2;P2;SDS_P1;SDS_P2;PMS_P1;PMS_P2;Temp;Humidity;BMP_temperature;BMP_pressure;BME280_temperature;BME280_humidity;BME280_pressure;Samples;Min_cycle;Max_cycle;Signal;HPM_P1;HPM_P2
2021/11/13 00:00:01;;;;;;;24.13;17.25;;;23.30;35.90;;;;;;5029610;28;20088;-59
2021/11/13 00:02:29;;;;;;;23.17;17.40;;;23.30;35.80;;;;;;5015880;28;20041;-58
2021/11/13 00:04:56;;;;;;;25.08;19.00;;;23.30;35.80;;;;;;5028794;28;20088;-59
2021/11/13 00:07:23;;;;;;;23.00;17.85;;;23.30;35.80;;;;;;5028565;28;20087;-59
2021/11/13 00:09:51;;;;;;;26.45;18.75;;;23.30;35.70;;;;;;5028902;28;20134;-59
2021/11/13 00:12:18;;;;;;;24.02;17.90;;;23.30;35.70;;;;;;5020087;28;20048;-59
2021/11/13 00:14:46;;;;;;;24.75;17.40;;;23.30;35.70;;;;;;5028290;28;20549;-60
2021/11/13 00:17:14;;;;;;;24.48;17.38;;;23.30;35.70;;;;;;5027587;28;20580;-60
2021/11/13 00:19:42;;;;;;;25.48;17.10;;;23.40;35.70;;;;;;5028041;28;20052;-60
2021/11/13 00:22:10;;;;;;;23.67;17.30;;;23.40;35.80;;;;;;5015758;28;20472;-59
2021/11/13 00:24:38;;;;;;;23.15;16.77;;;23.30;35.70;;;;;;5027909;28;20502;-60
2021/11/13 00:27:07;;;;;;;22.00;16.85;;;23.40;35.70;;;;;;5030332;28;20131;-59
2021/11/13 00:29:35;;;;;;;24.40;17.77;;;23.30;35.70;;;;;;5028746;28;20115;-59
2021/11/13 00:32:03;;;;;;;22.13;16.63;;;23.30;35.70;;;;;;5010603;28;20045;-60
2021/11/13 00:34:30;;;;;;;21.25;16.92;;;23.30;35.70;;;;;;5028276;28;20061;-59
2021/11/13 00:36:57;;;;;;;21.27;16.05;;;23.30;35.70;;;;;;5028763;28;20053;-59
2021/11/13 00:39:25;;;;;;;24.70;17.70;;;23.30;35.70;;;;;;5028286;28;20135;-59
2021/11/13 00:41:52;;;;;;;21.73;16.58;;;23.30;35.70;;;;;;5021996;28;20049;-59
2021/11/13 00:44:19;;;;;;;22.33;16.08;;;23.30;35.70;;;;;;5021422;28;20048;-60
2021/11/13 00:46:46;;;;;;;23.77;17.55;;;23.30;35.70;;;;;;5028511;28;20077;-60
2021/11/13 00:49:16;;;;;;;22.38;17.27;;;23.30;35.80;;;;;;5027874;28;20086;-59
2021/11/13 00:51:45;;;;;;;21.70;16.25;;;23.30;35.70;;;;;;5016772;28;20817;-60
2021/11/13 00:54:12;;;;;;;21.48;16.58;;;23.30;35.70;;;;;;5040709;28;20084;-60
2021/11/13 00:56:39;;;;;;;22.83;17.13;;;23.30;35.70;;;;;;5051267;28;20076;-59
2021/11/13 00:59:07;;;;;;;21.75;15.90;;;23.30;35.80;;;;;;5052234;28;20052;-59
2021/11/13 01:01:34;;;;;;;24.90;17.30;;;23.30;35.70;;;;;;5030944;28;20908;-59
2021/11/13 01:04:02;;;;;;;20.58;15.77;;;23.30;35.80;;;;;;5025587;28;20053;-59
2021/11/13 01:06:29;;;;;;;21.30;16.13;;;23.30;35.80;;;;;;5031231;28;20140;-59
2021/11/13 01:08:56;;;;;;;20.17;15.95;;;23.30;35.80;;;;;;5031907;28;20135;-59
2021/11/13 01:11:24;;;;;;;20.55;15.68;;;23.30;35.80;;;;;;5019930;28;20502;-59
2021/11/13 01:13:51;;;;;;;21.35;15.68;;;23.30;35.80;;;;;;5042261;28;20732;-59
2021/11/13 01:16:18;;;;;;;21.48;15.65;;;23.30;35.80;;;;;;5047215;28;20068;-59
2021/11/13 01:18:47;;;;;;;19.83;15.05;;;23.30;35.80;;;;;;5031900;28;20052;-59
2021/11/13 01:21:16;;;;;;;18.95;14.27;;;23.30;35.90;;;;;;5024381;28;20053;-60
2021/11/13 01:23:44;;;;;;;19.02;15.40;;;23.30;35.80;;;;;;5036328;28;20063;-59
2021/11/13 01:26:11;;;;;;;20.10;15.10;;;23.30;35.80;;;;;;5050983;28;20075;-59
2021/11/13 01:28:38;;;;;;;21.00;15.30;;;23.30;35.80;;;;;;5052542;28;20076;-59
2021/11/13 01:31:09;;;;;;;18.48;14.90;;;23.30;35.80;;;;;;5044072;28;20052;-60
2021/11/13 01:33:37;;;;;;;19.40;15.30;;;23.30;35.80;;;;;;5027646;28;20498;-60
2021/11/13 01:36:05;;;;;;;21.02;15.10;;;23.30;35.80;;;;;;5031110;28;20517;-59
2021/11/13 01:38:32;;;;;;;21.55;15.55;;;23.30;35.70;;;;;;5031555;28;20088;-60
2021/11/13 01:41:00;;;;;;;20.98;15.77;;;23.30;35.70;;;;;;5025609;28;20546;-59
2021/11/13 01:43:32;;;;;;;19.27;14.90;;;23.30;35.70;;;;;;5037364;28;20463;-59
2021/11/13 01:46:01;;;;;;;20.83;14.98;;;23.30;35.70;;;;;;5049899;28;20076;-60
2021/11/13 01:48:29;;;;;;;19.63;14.00;;;23.30;35.70;;;;;;5051573;28;20130;-59
2021/11/13 01:50:57;;;;;;;19.05;14.88;;;23.30;35.70;;;;;;5041743;28;20456;-59
2021/11/13 01:53:26;;;;;;;20.73;14.80;;;23.30;35.60;;;;;;5036007;28;20543;-59
2021/11/13 01:55:56;;;;;;;21.00;15.52;;;23.30;35.60;;;;;;5050039;28;20049;-59
2021/11/13 01:58:24;;;;;;;21.93;13.83;;;23.30;35.60;;;;;;5051459;28;20075;-60
2021/11/13 02:00:56;;;;;;;19.13;14.25;;;23.30;35.60;;;;;;5043509;28;20052;-59
2021/11/13 02:03:24;;;;;;;20.67;14.57;;;23.30;35.60;;;;;;5034565;28;20409;-59
2021/11/13 02:05:52;;;;;;;16.58;13.25;;;23.40;35.70;;;;;;5050594;28;20109;-59
2021/11/13 02:08:19;;;;;;;17.70;13.93;;;23.30;35.60;;;;;;5050802;28;20045;-59
2021/11/13 02:10:47;;;;;;;17.58;13.88;;;23.30;35.60;;;;;;5044524;28;20907;-59
2021/11/13 02:13:14;;;;;;;18.65;14.20;;;23.30;35.70;;;;;;5024425;28;20502;-59
2021/11/13 02:15:41;;;;;;;20.02;14.30;;;23.30;35.60;;;;;;5031333;28;20057;-59
2021/11/13 02:18:09;;;;;;;20.90;14.40;;;23.30;35.70;;;;;;5030688;28;20049;-59
2021/11/13 02:20:42;;;;;;;19.73;14.43;;;23.30;35.70;;;;;;5029421;28;20561;-60
2021/11/13 02:23:15;;;;;;;19.55;14.32;;;23.30;35.70;;;;;;5025419;28;20454;-59
2021/11/13 02:25:42;;;;;;;19.35;14.07;;;23.30;35.70;;;;;;5030379;28;20494;-59
2021/11/13 02:28:13;;;;;;;19.55;14.30;;;23.30;35.70;;;;;;5030598;28;20102;-59
2021/11/13 02:30:41;;;;;;;19.73;14.27;;;23.30;35.70;;;;;;5025423;28;20049;-60
2021/11/13 02:33:08;;;;;;;19.05;13.88;;;23.30;35.70;;;;;;5033509;28;20114;-60
2021/11/13 02:35:36;;;;;;;19.00;13.75;;;23.30;35.70;;;;;;5050463;28;20049;-59
2021/11/13 02:38:20;;;;;;;16.98;13.25;;;23.30;35.70;;;;;;5050226;28;20080;-59
2021/11/13 02:40:51;;;;;;;19.05;13.38;;;23.30;35.80;;;;;;5040670;28;20052;-59
2021/11/13 02:43:18;;;;;;;18.13;13.27;;;23.30;35.80;;;;;;5018916;28;20473;-59
2021/11/13 02:45:46;;;;;;;16.70;13.48;;;23.30;35.80;;;;;;5030571;28;20140;-60
2021/11/13 02:48:14;;;;;;;17.05;13.10;;;23.30;35.80;;;;;;5030193;28;20115;-59
2021/11/13 02:50:43;;;;;;;17.58;13.80;;;23.30;35.80;;;;;;5022400;28;20064;-59
2021/11/13 02:53:17;;;;;;;18.45;12.98;;;23.30;35.80;;;;;;5028953;28;20135;-59
2021/11/13 02:55:45;;;;;;;16.67;12.65;;;23.30;35.80;;;;;;5048926;28;20110;-59
2021/11/13 02:58:12;;;;;;;16.77;13.32;;;23.30;35.90;;;;;;5049856;28;20084;-60
2021/11/13 03:00:40;;;;;;;20.65;14.00;;;23.30;35.80;;;;;;5045736;28;20109;-60
2021/11/13 03:03:08;;;;;;;22.05;14.48;;;23.30;35.80;;;;;;5027787;28;20052;-60
2021/11/13 03:05:44;;;;;;;16.45;12.98;;;23.30;35.90;;;;;;5029913;28;20660;-60
2021/11/13 03:08:18;;;;;;;16.02;12.40;;;23.30;35.90;;;;;;5030839;28;20048;-59
2021/11/13 03:10:46;;;;;;;15.60;11.95;;;23.30;35.90;;;;;;5025184;28;20053;-59
2021/11/13 03:13:13;;;;;;;16.55;12.40;;;23.30;35.90;;;;;;5021485;28;20091;-60
2021/11/13 03:15:40;;;;;;;15.35;12.07;;;23.30;35.90;;;;;;5029883;28;20076;-60
2021/11/13 03:18:07;;;;;;;14.77;12.32;;;23.30;35.90;;;;;;5029267;28;20097;-59
2021/11/13 03:20:34;;;;;;;16.98;12.95;;;23.30;35.90;;;;;;5027395;28;20044;-59
2021/11/13 03:23:02;;;;;;;15.75;11.73;;;23.30;35.90;;;;;;5022254;28;20136;-59
2021/11/13 03:25:37;;;;;;;16.65;12.55;;;23.20;35.80;;;;;;5029824;28;20108;-59
2021/11/13 03:28:08;;;;;;;16.85;12.93;;;23.30;35.90;;;;;;5028466;28;20107;-59
2021/11/13 03:30:37;;;;;;;17.98;12.35;;;23.30;35.90;;;;;;5027011;28;20154;-60
2021/11/13 03:33:07;;;;;;;15.60;11.68;;;23.30;35.90;;;;;;5018348;28;20207;-60
2021/11/13 03:35:35;;;;;;;17.73;12.70;;;23.30;35.90;;;;;;5029792;28;20045;-60
2021/11/13 03:38:06;;;;;;;17.45;12.90;;;23.30;35.80;;;;;;5029180;28;20057;-59
2021/11/13 03:40:35;;;;;;;17.20;12.48;;;23.30;35.80;;;;;;5028247;28;20048;-59
2021/11/13 03:43:03;;;;;;;15.82;11.80;;;23.30;35.80;;;;;;5035442;28;20052;-59
2021/11/13 03:45:31;;;;;;;14.80;11.35;;;23.30;35.80;;;;;;5049402;28;20056;-59
2021/11/13 03:47:58;;;;;;;15.15;11.65;;;23.30;35.80;;;;;;5049059;28;20054;-59
2021/11/13 03:50:28;;;;;;;15.32;12.48;;;23.30;35.70;;;;;;5048258;28;20053;-60
2021/11/13 03:52:56;;;;;;;14.43;11.60;;;23.30;35.70;;;;;;5020383;28;20223;-59
2021/11/13 03:55:24;;;;;;;16.38;12.02;;;23.30;35.80;;;;;;5029091;28;20139;-59
2021/11/13 03:57:52;;;;;;;14.57;11.52;;;23.30;35.80;;;;;;5030982;28;20409;-59
2021/11/13 04:00:22;;;;;;;15.00;12.05;;;23.20;35.70;;;;;;5032766;28;20820;-59
2021/11/13 04:02:50;;;;;;;16.33;11.95;;;23.30;35.80;;;;;;5021527;28;20049;-59
2021/11/13 04:05:18;;;;;;;16.67;11.13;;;23.30;35.90;;;;;;5027571;28;20517;-59
2021/11/13 04:07:46;;;;;;;17.40;12.25;;;23.30;35.80;;;;;;5028835;28;20102;-59
2021/11/13 04:10:14;;;;;;;15.43;11.65;;;23.20;35.80;;;;;;5027593;28;20111;-59
2021/11/13 04:12:44;;;;;;;13.52;11.07;;;23.20;35.80;;;;;;5028545;28;20048;-59
2021/11/13 04:15:13;;;;;;;16.57;11.70;;;23.30;35.90;;;;;;5048618;28;20113;-59
2021/11/13 04:17:40;;;;;;;14.90;11.10;;;23.20;35.80;;;;;;5032664;28;20049;-59
2021/11/13 04:20:09;;;;;;;13.82;10.57;;;23.20;35.80;;;;;;5027664;28;20826;-59
2021/11/13 04:22:37;;;;;;;17.02;11.82;;;23.20;35.90;;;;;;5017075;28;20069;-59
2021/11/13 04:25:05;;;;;;;15.15;11.38;;;23.20;35.90;;;;;;5028410;28;20544;-59
2021/11/13 04:27:33;;;;;;;14.73;11.20;;;23.20;35.90;;;;;;5028931;28;20084;-59
2021/11/13 04:30:00;;;;;;;16.90;11.18;;;23.20;35.90;;;;;;5028312;28;20052;-59
2021/11/13 04:32:29;;;;;;;14.77;10.90;;;23.20;35.90;;;;;;5010112;28;20052;-59
2021/11/13 04:35:14;;;;;;;14.70;10.85;;;23.20;35.90;;;;;;5028282;28;20092;-59
2021/11/13 04:37:43;;;;;;;14.10;11.02;;;23.20;35.90;;;;;;5027288;28;20107;-61
2021/11/13 04:40:11;;;;;;;15.50;11.05;;;23.20;35.90;;;;;;5028151;28;20076;-59
2021/11/13 04:42:38;;;;;;;14.10;10.85;;;23.20;35.90;;;;;;5030611;28;20113;-59
2021/11/13 04:45:06;;;;;;;16.83;11.40;;;23.20;35.90;;;;;;5048326;28;20444;-59
2021/11/13 04:47:34;;;;;;;13.93;11.27;;;23.20;36.00;;;;;;5046962;28;20630;-59
2021/11/13 04:50:03;;;;;;;14.25;10.10;;;23.20;36.00;;;;;;5047841;28;20091;-59
2021/11/13 04:52:30;;;;;;;13.90;10.20;;;23.20;36.00;;;;;;5017920;28;20590;-59
2021/11/13 04:54:58;;;;;;;14.63;11.15;;;23.20;36.00;;;;;;5047861;28;20053;-59
2021/11/13 04:57:25;;;;;;;14.63;10.40;;;23.20;36.00;;;;;;5046419;28;20114;-59
2021/11/13 04:59:52;;;;;;;13.60;9.50;;;23.20;36.00;;;;;;5047391;28;20103;-59
2021/11/13 05:02:19;;;;;;;15.73;11.73;;;23.20;36.00;;;;;;5021067;28;20061;-59
2021/11/13 05:04:53;;;;;;;13.50;10.35;;;23.20;36.00;;;;;;5026503;28;20061;-59
2021/11/13 05:07:22;;;;;;;15.95;10.80;;;23.20;36.00;;;;;;5026823;28;20084;-59
2021/11/13 05:09:50;;;;;;;15.77;10.30;;;23.20;36.00;;;;;;5027953;28;20063;-59
2021/11/13 05:12:18;;;;;;;13.60;10.40;;;23.20;36.00;;;;;;5012889;28;20126;-59
2021/11/13 05:14:46;;;;;;;15.10;11.30;;;23.20;36.00;;;;;;5027613;28;20110;-59
2021/11/13 05:17:13;;;;;;;14.73;10.40;;;23.20;36.00;;;;;;5028427;28;20732;-59
2021/11/13 05:19:41;;;;;;;13.27;9.43;;;23.20;36.00;;;;;;5027029;28;20053;-59
2021/11/13 05:22:08;;;;;;;12.63;9.77;;;23.20;36.00;;;;;;5021529;28;20749;-59
2021/11/13 05:24:36;;;;;;;15.70;11.10;;;23.20;36.00;;;;;;5047634;28;20542;-59
2021/11/13 05:27:03;;;;;;;14.57;10.73;;;23.20;35.90;;;;;;5047740;28;20091;-59
2021/11/13 05:29:30;;;;;;;12.45;9.70;;;23.20;35.90;;;;;;5047802;28;20060;-59
2021/11/13 05:31:58;;;;;;;13.88;10.10;;;23.20;35.90;;;;;;5016541;28;20148;-60
2021/11/13 05:34:25;;;;;;;14.25;9.95;;;23.20;35.90;;;;;;5047350;28;20110;-60
2021/11/13 05:36:52;;;;;;;13.40;9.82;;;23.20;35.90;;;;;;5048093;28;20056;-60
2021/11/13 05:39:20;;;;;;;13.18;9.52;;;23.20;35.90;;;;;;5045611;28;20501;-59
2021/11/13 05:41:48;;;;;;;13.25;10.00;;;23.20;35.90;;;;;;5029577;28;20056;-59
2021/11/13 05:44:16;;;;;;;14.20;10.23;;;23.20;35.90;;;;;;5030077;28;20567;-59
2021/11/13 05:46:43;;;;;;;13.60;9.40;;;23.20;35.90;;;;;;5031541;28;20048;-60
2021/11/13 05:49:10;;;;;;;12.82;9.73;;;23.20;35.90;;;;;;5031537;28;20088;-60
2021/11/13 05:51:38;;;;;;;13.65;10.13;;;23.20;35.90;;;;;;5022677;28;20590;-59
2021/11/13 05:54:05;;;;;;;13.57;10.45;;;23.20;36.00;;;;;;5045114;28;20064;-60
2021/11/13 05:56:32;;;;;;;13.45;9.85;;;23.20;36.00;;;;;;5050270;28;20697;-59
2021/11/13 05:58:59;;;;;;;13.48;9.60;;;23.20;35.90;;;;;;5050657;28;20137;-59
2021/11/13 06:01:27;;;;;;;13.55;10.13;;;23.20;35.90;;;;;;5031795;28;20098;-60
2021/11/13 06:03:54;;;;;;;13.55;9.48;;;23.20;36.00;;;;;;5030257;28;20060;-60
2021/11/13 06:06:21;;;;;;;13.18;9.88;;;23.20;36.00;;;;;;5029325;28;20780;-60
2021/11/13 06:08:48;;;;;;;13.73;10.05;;;23.20;36.00;;;;;;5030872;28;20081;-60
2021/11/13 06:11:16;;;;;;;12.68;9.65;;;23.20;35.90;;;;;;5023198;28;20057;-60
2021/11/13 06:13:43;;;;;;;12.98;9.32;;;23.20;35.90;;;;;;5022523;28;20486;-59
2021/11/13 06:16:11;;;;;;;14.23;10.00;;;23.30;35.90;;;;;;5030368;28;20132;-60
2021/11/13 06:18:38;;;;;;;13.35;9.90;;;23.20;35.80;;;;;;5029598;28;20143;-59
2021/11/13 06:21:07;;;;;;;12.65;9.40;;;23.20;35.70;;;;;;5022482;28;20468;-60
2021/11/13 06:23:36;;;;;;;16.38;9.38;;;23.20;35.70;;;;;;5002181;28;20548;-59
2021/11/13 06:26:05;;;;;;;12.30;9.68;;;23.30;35.70;;;;;;5029381;28;20084;-59
2021/11/13 06:28:33;;;;;;;10.63;7.68;;;23.30;35.70;;;;;;5030701;28;20131;-60
2021/11/13 06:31:01;;;;;;;11.68;8.48;;;23.30;35.60;;;;;;5025651;28;20524;-60
2021/11/13 06:33:28;;;;;;;11.07;8.35;;;23.30;35.40;;;;;;5021883;28;20176;-59
2021/11/13 06:35:55;;;;;;;11.35;8.65;;;23.30;35.30;;;;;;5030324;28;20049;-60
2021/11/13 06:38:23;;;;;;;10.82;7.70;;;23.40;35.10;;;;;;5030927;28;20114;-61
2021/11/13 06:40:50;;;;;;;10.35;8.45;;;23.50;35.20;;;;;;5022551;28;20084;-60
2021/11/13 06:43:17;;;;;;;10.45;8.05;;;23.50;35.00;;;;;;5019584;28;20061;-60
2021/11/13 06:45:45;;;;;;;11.50;8.48;;;23.60;35.00;;;;;;5030478;28;20065;-60
2021/11/13 06:48:12;;;;;;;10.23;7.72;;;23.60;34.90;;;;;;5030373;28;20049;-60
2021/11/13 06:50:39;;;;;;;11.43;8.07;;;23.60;34.80;;;;;;5025390;28;20107;-61
2021/11/13 06:53:07;;;;;;;11.05;7.70;;;23.70;34.80;;;;;;5038388;28;20048;-57
2021/11/13 06:55:34;;;;;;;8.65;7.15;;;23.70;34.60;;;;;;5049683;28;20048;-60
2021/11/13 06:58:01;;;;;;;11.25;7.30;;;23.80;34.60;;;;;;5050277;28;20060;-60
2021/11/13 07:00:29;;;;;;;9.23;7.30;;;23.80;34.50;;;;;;5048268;28;20044;-60
2021/11/13 07:03:00;;;;;;;9.32;6.90;;;23.90;34.40;;;;;;5013438;28;20529;-61
2021/11/13 07:05:27;;;;;;;10.13;7.43;;;23.90;34.30;;;;;;5029609;28;20049;-60
2021/11/13 07:07:56;;;;;;;9.50;7.20;;;24.00;34.30;;;;;;5029939;28;20080;-60
2021/11/13 07:10:25;;;;;;;9.40;6.82;;;24.10;34.20;;;;;;5029597;28;20083;-60
2021/11/13 07:12:56;;;;;;;7.82;6.60;;;24.10;34.10;;;;;;5016814;28;20053;-60
2021/11/13 07:15:26;;;;;;;8.73;6.63;;;24.10;34.00;;;;;;5029386;28;20140;-60
2021/11/13 07:17:53;;;;;;;8.38;6.25;;;24.20;33.90;;;;;;5029941;28;20131;-60
2021/11/13 07:20:21;;;;;;;7.90;6.38;;;24.30;33.90;;;;;;5027659;28;20136;-60
2021/11/13 07:22:49;;;;;;;8.02;6.70;;;24.30;34.30;;;;;;5014482;28;20080;-60
2021/11/13 07:25:17;;;;;;;7.93;6.45;;;24.30;33.70;;;;;;5029552;28;20144;-61
2021/11/13 07:27:46;;;;;;;8.55;6.68;;;24.40;33.70;;;;;;5030145;28;20052;-60
2021/11/13 07:30:19;;;;;;;7.90;6.30;;;24.50;33.60;;;;;;5029726;28;20458;-61
2021/11/13 07:32:48;;;;;;;6.95;5.70;;;24.50;33.50;;;;;;5019407;28;20087;-60
2021/11/13 07:35:15;;;;;;;7.53;6.05;;;24.50;33.40;;;;;;5049066;28;20098;-60
2021/11/13 07:37:42;;;;;;;8.50;5.97;;;24.50;33.30;;;;;;5049371;28;20104;-60
2021/11/13 07:40:10;;;;;;;8.10;6.43;;;24.60;33.30;;;;;;5049561;28;20080;-60
2021/11/13 07:42:37;;;;;;;7.45;5.88;;;24.60;33.20;;;;;;5024562;28;20080;-60
2021/11/13 07:45:07;;;;;;;7.90;5.88;;;24.60;33.20;;;;;;5047030;28;20139;-60
2021/11/13 07:47:36;;;;;;;8.20;5.80;;;24.70;33.20;;;;;;5049331;28;20049;-60
2021/11/13 07:50:03;;;;;;;7.43;6.15;;;24.70;33.10;;;;;;5049067;28;20080;-60
2021/11/13 07:52:31;;;;;;;6.88;5.47;;;24.70;33.00;;;;;;5014201;28;20045;-60
2021/11/13 07:54:58;;;;;;;7.55;5.65;;;24.70;33.00;;;;;;5029200;28;20084;-60
2021/11/13 07:57:25;;;;;;;7.35;5.63;;;24.80;33.00;;;;;;5029122;28;20243;-60
2021/11/13 07:59:52;;;;;;;7.15;5.88;;;24.80;32.90;;;;;;5029094;28;20568;-60
2021/11/13 08:02:19;;;;;;;6.43;5.65;;;24.80;32.80;;;;;;5011888;28;20087;-59
2021/11/13 08:04:46;;;;;;;6.28;5.10;;;24.90;32.80;;;;;;5044465;28;20099;-59
2021/11/13 08:07:14;;;;;;;7.20;5.95;;;24.90;32.70;;;;;;5025879;28;20095;-59
2021/11/13 08:09:41;;;;;;;6.22;5.20;;;24.90;32.70;;;;;;5027019;28;20126;-60
2021/11/13 08:12:08;;;;;;;5.38;4.88;;;25.00;32.70;;;;;;5015383;28;20076;-59
2021/11/13 08:14:35;;;;;;;7.28;5.93;;;25.00;32.60;;;;;;5028443;28;20080;-59
2021/11/13 08:17:03;;;;;;;5.78;4.90;;;25.00;32.50;;;;;;5029955;28;20087;-59
2021/11/13 08:19:30;;;;;;;5.75;5.15;;;25.10;32.50;;;;;;5038085;28;20140;-60
2021/11/13 08:21:58;;;;;;;5.38;4.63;;;25.10;32.50;;;;;;5004914;28;20506;-59
2021/11/13 08:24:26;;;;;;;7.50;5.72;;;25.10;32.50;;;;;;5015705;28;20087;-59
2021/11/13 08:26:53;;;;;;;6.32;5.00;;;25.10;32.40;;;;;;5019045;28;20455;-60
2021/11/13 08:29:20;;;;;;;6.15;5.18;;;25.20;32.40;;;;;;5017665;28;20049;-59
2021/11/13 08:31:48;;;;;;;5.70;4.82;;;25.20;32.30;;;;;;5011243;28;20045;-59
2021/11/13 08:34:16;;;;;;;5.65;4.75;;;25.20;32.30;;;;;;5026403;28;20052;-60
2021/11/13 08:36:43;;;;;;;6.00;5.28;;;25.30;32.30;;;;;;5027890;28;20498;-60
2021/11/13 08:39:13;;;;;;;5.00;4.47;;;25.30;32.20;;;;;;5019941;28;20532;-59
2021/11/13 08:41:40;;;;;;;6.90;5.63;;;25.30;32.10;;;;;;5017351;28;20059;-59
2021/11/13 08:44:09;;;;;;;6.18;5.20;;;25.30;32.10;;;;;;5023664;28;20575;-59
2021/11/13 08:46:36;;;;;;;7.60;6.03;;;25.40;32.10;;;;;;5027776;28;20136;-59
2021/11/13 08:49:05;;;;;;;6.32;5.53;;;25.40;32.00;;;;;;5028260;28;20135;-60
2021/11/13 08:51:33;;;;;;;7.93;5.90;;;25.50;32.00;;;;;;5016614;28;20057;-60
2021/11/13 08:54:00;;;;;;;5.72;5.13;;;25.50;32.00;;;;;;5039682;28;20475;-59
2021/11/13 08:56:30;;;;;;;6.63;5.38;;;25.50;31.90;;;;;;5029764;28;20044;-60
2021/11/13 08:58:58;;;;;;;7.38;5.78;;;25.60;31.90;;;;;;5033993;28;20115;-59
2021/11/13 09:01:30;;;;;;;6.25;5.65;;;25.60;31.80;;;;;;5021864;28;20110;-61
2021/11/13 09:03:58;;;;;;;7.40;6.00;;;25.70;31.80;;;;;;5029029;28;20136;-59
2021/11/13 09:06:31;;;;;;;6.90;5.63;;;25.70;31.80;;;;;;5027320;28;20049;-59
2021/11/13 09:09:00;;;;;;;6.45;5.65;;;25.70;31.70;;;;;;5016859;28;20529;-60
2021/11/13 09:11:31;;;;;;;6.90;5.75;;;25.70;31.70;;;;;;5016851;28;20049;-60
2021/11/13 09:14:00;;;;;;;7.80;6.18;;;25.70;31.60;;;;;;5031273;28;20049;-59
2021/11/13 09:16:27;;;;;;;6.82;5.95;;;25.80;31.70;;;;;;5035226;28;20052;-59
2021/11/13 09:18:54;;;;;;;6.95;5.93;;;25.80;31.60;;;;;;5033159;28;20091;-60
2021/11/13 09:21:22;;;;;;;6.43;5.75;;;25.80;31.60;;;;;;5033147;28;20099;-60
2021/11/13 09:23:49;;;;;;;6.85;5.78;;;25.80;31.50;;;;;;5021140;28;20056;-60
2021/11/13 09:26:17;;;;;;;7.15;6.32;;;25.80;31.50;;;;;;5031674;28;20053;-60
2021/11/13 09:28:44;;;;;;;6.85;5.95;;;25.90;31.50;;;;;;5030153;28;20095;-60
2021/11/13 09:31:12;;;;;;;6.88;6.18;;;25.90;31.50;;;;;;5028055;28;20062;-60
2021/11/13 09:33:39;;;;;;;7.35;6.30;;;26.00;31.50;;;;;;5024952;28;20052;-60
2021/11/13 09:36:06;;;;;;;6.95;6.22;;;26.00;31.40;;;;;;5024213;28;20048;-60
2021/11/13 09:38:37;;;;;;;8.20;6.65;;;26.00;31.40;;;;;;5019592;28;20085;-60
2021/11/13 09:41:06;;;;;;;7.45;6.63;;;26.00;31.40;;;;;;5028005;28;20098;-60
2021/11/13 09:43:34;;;;;;;6.97;6.00;;;26.00;31.40;;;;;;5019574;28;20258;-60
2021/11/13 09:46:04;;;;;;;7.38;6.30;;;26.10;31.30;;;;;;5029353;28;20053;-60
2021/11/13 09:48:32;;;;;;;6.95;6.07;;;26.10;31.20;;;;;;5030785;28;20083;-60
2021/11/13 09:51:02;;;;;;;8.00;6.60;;;26.20;31.20;;;;;;5023004;28;20143;-60
2021/11/13 09:53:30;;;;;;;;;;;26.20;31.20;;;;;;5019995;28;20053;-60
2021/11/13 09:55:58;;;;;;;6.72;5.80;;;26.20;31.10;;;;;;5029909;28;20043;-60
2021/11/13 09:58:26;;;;;;;7.18;6.47;;;26.20;31.60;;;;;;5030523;28;20076;-59
2021/11/13 10:00:54;;;;;;;7.68;6.05;;;26.30;31.10;;;;;;5024328;28;20144;-60
2021/11/13 10:03:22;;;;;;;7.03;6.22;;;26.30;31.10;;;;;;5020092;28;20576;-60
2021/11/13 10:05:52;;;;;;;6.47;5.80;;;26.30;31.00;;;;;;5031037;28;20558;-60
2021/11/13 10:08:20;;;;;;;6.95;6.20;;;26.30;31.00;;;;;;5031115;28;20053;-60
2021/11/13 10:10:49;;;;;;;7.50;6.32;;;26.40;31.00;;;;;;5024795;28;20490;-60
2021/11/13 10:13:31;;;;;;;7.05;6.22;;;26.40;30.90;;;;;;5020186;28;20053;-60
2021/11/13 10:16:04;;;;;;;7.75;6.65;;;26.40;30.90;;;;;;5031263;28;20049;-60
2021/11/13 10:18:35;;;;;;;7.07;6.32;;;26.40;30.90;;;;;;5030843;28;20661;-60
2021/11/13 10:21:07;;;;;;;8.10;6.60;;;26.40;30.90;;;;;;5024604;28;20052;-60
2021/11/13 10:23:39;;;;;;;7.05;6.35;;;26.50;30.90;;;;;;5003139;28;20056;-60
2021/11/13 10:26:14;;;;;;;7.10;6.05;;;26.50;30.90;;;;;;5030449;28;20138;-61
2021/11/13 10:29:05;;;;;;;8.77;6.72;;;26.50;30.80;;;;;;5029612;28;20518;-60
2021/11/13 10:31:36;;;;;;;8.60;6.68;;;26.50;30.80;;;;;;5026474;28;20064;-60
2021/11/13 10:34:08;;;;;;;7.03;6.28;;;26.50;30.80;;;;;;5026749;28;20453;-61
2021/11/13 10:36:38;;;;;;;8.68;6.90;;;26.50;30.80;;;;;;5031159;28;20076;-61
2021/11/13 10:39:14;;;;;;;9.15;7.22;;;26.60;30.80;;;;;;5030517;28;20077;-61
2021/11/13 10:41:52;;;;;;;8.27;6.93;;;26.50;30.80;;;;;;5018532;28;20052;-61
2021/11/13 10:44:32;;;;;;;10.45;7.43;;;26.50;30.70;;;;;;5026291;28;20143;-61
2021/11/13 10:47:07;;;;;;;7.93;7.13;;;26.60;30.80;;;;;;5030479;28;20049;-61
2021/11/13 10:49:34;;;;;;;7.85;6.85;;;26.60;30.70;;;;;;5026293;28;20110;-61
2021/11/13 10:52:04;;;;;;;7.75;6.68;;;26.60;30.70;;;;;;5021756;28;20600;-61
2021/11/13 10:54:31;;;;;;;10.15;7.68;;;26.60;30.70;;;;;;5031421;28;20643;-61
2021/11/13 10:57:01;;;;;;;8.73;7.05;;;26.60;30.70;;;;;;5017966;28;20068;-61
2021/11/13 10:59:30;;;;;;;;;;;26.60;30.70;;;;;;5019402;28;20520;-61
2021/11/13 11:02:04;;;;;;;9.20;7.65;;;26.60;30.70;;;;;;5013797;28;19988;-61
2021/11/13 11:04:35;;;;;;;9.18;7.88;;;26.60;30.70;;;;;;5029283;28;20037;-61
2021/11/13 11:07:12;;;;;;;10.13;7.97;;;26.60;30.70;;;;;;5037233;28;20134;-61
2021/11/13 11:09:42;;;;;;;8.77;7.18;;;26.70;30.70;;;;;;5037600;28;20052;-61
2021/11/13 11:12:13;;;;;;;9.30;7.22;;;26.60;30.70;;;;;;5013488;28;20088;-61
2021/11/13 11:14:44;;;;;;;8.75;7.38;;;26.70;30.80;;;;;;5029215;28;20064;-61
2021/11/13 11:17:15;;;;;;;9.57;7.88;;;26.60;30.70;;;;;;5029449;28;20053;-61
2021/11/13 11:19:48;;;;;;;9.10;7.43;;;26.60;30.70;;;;;;5027327;28;20136;-61
2021/11/13 11:22:21;;;;;;;9.60;7.68;;;26.70;30.80;;;;;;5019150;28;20438;-61
2021/11/13 11:24:59;;;;;;;9.52;7.63;;;26.60;30.70;;;;;;5042859;28;20109;-61
2021/11/13 11:27:30;;;;;;;10.48;8.25;;;26.60;30.70;;;;;;5030248;28;20057;-61
2021/11/13 11:30:13;;;;;;;10.32;8.18;;;26.60;30.60;;;;;;5030096;28;20135;-61
2021/11/13 11:32:46;;;;;;;10.43;8.25;;;26.70;30.70;;;;;;5007642;28;20083;-61
2021/11/13 11:35:23;;;;;;;9.90;8.25;;;26.70;30.70;;;;;;5027871;28;20056;-61
2021/11/13 11:37:54;;;;;;;10.13;8.20;;;26.70;30.60;;;;;;5033349;28;20052;-61
2021/11/13 11:40:29;;;;;;;10.90;8.80;;;26.70;30.60;;;;;;5032032;28;20513;-61
2021/11/13 11:42:58;;;;;;;9.73;8.13;;;26.70;30.60;;;;;;5012045;28;20048;-61
2021/11/13 11:45:31;;;;;;;11.27;8.68;;;26.70;30.70;;;;;;5028945;28;20494;-61
2021/11/13 11:47:59;;;;;;;12.00;9.45;;;26.70;30.70;;;;;;5029509;28;20053;-59
2021/11/13 11:50:31;;;;;;;12.60;8.95;;;26.70;30.60;;;;;;5028591;28;20049;-61
2021/11/13 11:53:07;;;;;;;10.57;8.50;;;26.70;30.70;;;;;;5007644;28;20052;-60
2021/11/13 11:55:36;;;;;;;12.52;8.98;;;26.70;30.70;;;;;;5028803;28;20056;-60
2021/11/13 11:58:08;;;;;;;13.13;9.25;;;26.70;30.70;;;;;;5029286;28;20430;-60
2021/11/13 12:00:38;;;;;;;11.30;8.85;;;26.70;30.60;;;;;;5024978;28;20056;-60
2021/11/13 12:03:06;;;;;;;12.25;9.48;;;26.70;30.70;;;;;;5032383;28;20509;-60
2021/11/13 12:05:38;;;;;;;11.52;9.02;;;26.70;30.60;;;;;;5048270;28;20063;-60
2021/11/13 12:08:18;;;;;;;12.75;9.90;;;26.70;30.60;;;;;;5048605;28;20551;-59
2021/11/13 12:10:46;;;;;;;11.55;9.15;;;26.80;30.60;;;;;;5039038;28;20057;-60
2021/11/13 12:13:16;;;;;;;12.35;9.20;;;26.80;30.60;;;;;;5029016;28;20106;-62
2021/11/13 12:15:52;;;;;;;12.10;9.18;;;26.80;30.60;;;;;;5048817;28;20071;-61
2021/11/13 12:18:28;;;;;;;13.98;9.75;;;26.80;30.60;;;;;;5009003;28;20129;-60
2021/11/13 12:21:16;;;;;;;12.10;9.05;;;26.80;30.50;;;;;;5006287;28;20810;-60
2021/11/13 12:23:46;;;;;;;13.07;9.88;;;26.80;30.50;;;;;;5032351;28;20103;-60
2021/11/13 12:26:36;;;;;;;12.55;9.40;;;26.80;30.50;;;;;;5048589;28;20402;-60
2021/11/13 12:29:08;;;;;;;12.50;9.80;;;26.90;30.50;;;;;;5046872;28;20045;-60
2021/11/13 12:31:46;;;;;;;13.68;9.63;;;26.80;30.50;;;;;;5030816;28;20056;-60
2021/11/13 12:34:16;;;;;;;13.40;9.77;;;26.90;30.50;;;;;;5043264;28;20105;-60
2021/11/13 12:36:59;;;;;;;12.75;9.68;;;26.90;30.50;;;;;;5048062;28;20055;-60
2021/11/13 12:39:30;;;;;;;13.27;9.77;;;26.90;30.50;;;;;;5048059;28;20662;-60
2021/11/13 12:42:20;;;;;;;14.43;10.05;;;26.90;30.50;;;;;;5031541;28;20848;-61
2021/11/13 12:44:48;;;;;;;14.65;10.93;;;26.80;30.50;;;;;;5028423;28;20063;-60